Atqasuk, Alaska
Current Conditions -  °F | °C
As of 11:53 PM on Wednesday 22 Oct 2014 (Local Time) from PAWI Reporting Station
Overcast Overcast  
Wind Chill:   Ceiling: 900
Heat Index: 20°   Visibility: 10mi
Dew Point: 16°   Wind: 17mph
Humidity: 85%   Direction: 60°ENE
Pressure: 30.02"   Gusts: NA
Location:  70.47°N, 157.4°W
Report Text: PAWI 230753Z AUTO 06015KT 10SM OVC009 M07/M09 A3002 RMK AO2 SLP167 T10671089 TSNO
Loading
Personal Weather Stations






























Interactive Weather Map
Tropical Storm Tracking
New forecast layout! Learn more

10-Day Weather Forecast

Advertisements
Track Severe Weather on mobile